sensor_id;sensor_type;location;lat;lon;timestamp;P1;durP1;ratioP1;P2;durP2;ratioP2
52730;SDS011;38624;53.242;6.974;2023-08-06T00:00:23;14.77;;;8.90;;
52730;SDS011;38624;53.242;6.974;2023-08-06T00:02:49;15.60;;;8.00;;
52730;SDS011;38624;53.242;6.974;2023-08-06T00:05:15;12.30;;;8.93;;
52730;SDS011;38624;53.242;6.974;2023-08-06T00:07:49;14.43;;;8.15;;
52730;SDS011;38624;53.242;6.974;2023-08-06T00:10:15;14.23;;;9.13;;
52730;SDS011;38624;53.242;6.974;2023-08-06T00:12:42;12.30;;;8.63;;
52730;SDS011;38624;53.242;6.974;2023-08-06T00:15:09;14.18;;;9.20;;
52730;SDS011;38624;53.242;6.974;2023-08-06T00:17:35;11.38;;;8.48;;
52730;SDS011;38624;53.242;6.974;2023-08-06T00:20:02;20.52;;;9.27;;
52730;SDS011;38624;53.242;6.974;2023-08-06T00:22:36;13.98;;;8.80;;
52730;SDS011;38624;53.242;6.974;2023-08-06T00:25:03;13.10;;;9.13;;
52730;SDS011;38624;53.242;6.974;2023-08-06T00:29:55;14.98;;;9.45;;
52730;SDS011;38624;53.242;6.974;2023-08-06T00:32:21;14.20;;;9.30;;
52730;SDS011;38624;53.242;6.974;2023-08-06T00:34:47;15.97;;;9.03;;
52730;SDS011;38624;53.242;6.974;2023-08-06T00:37:16;18.95;;;10.00;;
52730;SDS011;38624;53.242;6.974;2023-08-06T00:39:42;14.57;;;9.52;;
52730;SDS011;38624;53.242;6.974;2023-08-06T00:42:09;17.17;;;9.40;;
52730;SDS011;38624;53.242;6.974;2023-08-06T00:47:02;14.90;;;8.95;;
52730;SDS011;38624;53.242;6.974;2023-08-06T00:49:28;16.95;;;9.43;;
52730;SDS011;38624;53.242;6.974;2023-08-06T00:51:54;12.95;;;9.30;;
52730;SDS011;38624;53.242;6.974;2023-08-06T00:56:46;15.80;;;9.63;;
52730;SDS011;38624;53.242;6.974;2023-08-06T00:59:12;12.40;;;9.15;;
52730;SDS011;38624;53.242;6.974;2023-08-06T01:01:39;19.45;;;9.43;;
52730;SDS011;38624;53.242;6.974;2023-08-06T01:04:04;18.23;;;10.37;;
52730;SDS011;38624;53.242;6.974;2023-08-06T01:06:48;16.57;;;10.07;;
52730;SDS011;38624;53.242;6.974;2023-08-06T01:09:40;13.68;;;10.07;;
52730;SDS011;38624;53.242;6.974;2023-08-06T01:12:41;13.95;;;10.35;;
52730;SDS011;38624;53.242;6.974;2023-08-06T01:15:15;19.05;;;10.77;;
52730;SDS011;38624;53.242;6.974;2023-08-06T01:17:45;17.23;;;11.48;;
52730;SDS011;38624;53.242;6.974;2023-08-06T01:20:12;16.52;;;10.55;;
52730;SDS011;38624;53.242;6.974;2023-08-06T01:22:38;17.80;;;10.70;;
52730;SDS011;38624;53.242;6.974;2023-08-06T01:25:03;16.43;;;11.07;;
52730;SDS011;38624;53.242;6.974;2023-08-06T01:27:43;16.25;;;11.80;;
52730;SDS011;38624;53.242;6.974;2023-08-06T01:30:14;17.90;;;11.00;;
52730;SDS011;38624;53.242;6.974;2023-08-06T01:32:49;16.85;;;11.18;;
52730;SDS011;38624;53.242;6.974;2023-08-06T01:35:18;16.90;;;11.63;;
52730;SDS011;38624;53.242;6.974;2023-08-06T01:37:46;20.25;;;11.27;;
52730;SDS011;38624;53.242;6.974;2023-08-06T01:40:12;14.75;;;11.45;;
52730;SDS011;38624;53.242;6.974;2023-08-06T01:42:39;14.77;;;11.38;;
52730;SDS011;38624;53.242;6.974;2023-08-06T01:45:06;14.82;;;10.50;;
52730;SDS011;38624;53.242;6.974;2023-08-06T01:47:32;18.08;;;11.25;;
52730;SDS011;38624;53.242;6.974;2023-08-06T01:49:58;16.50;;;11.02;;
52730;SDS011;38624;53.242;6.974;2023-08-06T01:52:24;15.40;;;11.70;;
52730;SDS011;38624;53.242;6.974;2023-08-06T01:54:50;18.50;;;12.60;;
52730;SDS011;38624;53.242;6.974;2023-08-06T01:57:15;17.23;;;11.60;;
52730;SDS011;38624;53.242;6.974;2023-08-06T01:59:41;16.05;;;11.88;;
52730;SDS011;38624;53.242;6.974;2023-08-06T02:02:06;13.77;;;11.10;;
52730;SDS011;38624;53.242;6.974;2023-08-06T02:04:32;17.83;;;11.20;;
52730;SDS011;38624;53.242;6.974;2023-08-06T02:06:58;17.15;;;11.50;;
52730;SDS011;38624;53.242;6.974;2023-08-06T02:09:23;23.37;;;11.77;;
52730;SDS011;38624;53.242;6.974;2023-08-06T02:11:49;20.05;;;12.30;;
52730;SDS011;38624;53.242;6.974;2023-08-06T02:14:15;14.53;;;11.20;;
52730;SDS011;38624;53.242;6.974;2023-08-06T02:16:40;16.60;;;12.27;;
52730;SDS011;38624;53.242;6.974;2023-08-06T02:19:06;15.35;;;11.55;;
52730;SDS011;38624;53.242;6.974;2023-08-06T02:21:32;15.50;;;11.13;;
52730;SDS011;38624;53.242;6.974;2023-08-06T02:23:57;14.63;;;11.13;;
52730;SDS011;38624;53.242;6.974;2023-08-06T02:26:23;15.83;;;11.47;;
52730;SDS011;38624;53.242;6.974;2023-08-06T02:28:49;13.27;;;10.93;;
52730;SDS011;38624;53.242;6.974;2023-08-06T02:31:14;16.40;;;10.70;;
52730;SDS011;38624;53.242;6.974;2023-08-06T02:33:40;14.90;;;10.68;;
52730;SDS011;38624;53.242;6.974;2023-08-06T02:36:06;14.52;;;10.15;;
52730;SDS011;38624;53.242;6.974;2023-08-06T02:38:31;13.70;;;10.27;;
52730;SDS011;38624;53.242;6.974;2023-08-06T02:40:58;16.23;;;10.70;;
52730;SDS011;38624;53.242;6.974;2023-08-06T02:43:23;16.27;;;10.57;;
52730;SDS011;38624;53.242;6.974;2023-08-06T02:45:49;15.33;;;11.17;;
52730;SDS011;38624;53.242;6.974;2023-08-06T02:48:15;12.10;;;9.63;;
52730;SDS011;38624;53.242;6.974;2023-08-06T02:50:41;18.20;;;10.63;;
52730;SDS011;38624;53.242;6.974;2023-08-06T02:53:07;16.00;;;10.02;;
52730;SDS011;38624;53.242;6.974;2023-08-06T02:55:33;18.17;;;10.75;;
52730;SDS011;38624;53.242;6.974;2023-08-06T02:58:00;17.83;;;10.85;;
52730;SDS011;38624;53.242;6.974;2023-08-06T03:02:52;13.32;;;10.13;;
52730;SDS011;38624;53.242;6.974;2023-08-06T03:05:18;12.50;;;9.85;;
52730;SDS011;38624;53.242;6.974;2023-08-06T03:07:44;16.00;;;10.80;;
52730;SDS011;38624;53.242;6.974;2023-08-06T03:10:10;13.33;;;10.33;;
52730;SDS011;38624;53.242;6.974;2023-08-06T03:12:35;14.03;;;10.70;;
52730;SDS011;38624;53.242;6.974;2023-08-06T03:15:01;13.30;;;10.23;;
52730;SDS011;38624;53.242;6.974;2023-08-06T03:17:27;15.50;;;10.50;;
52730;SDS011;38624;53.242;6.974;2023-08-06T03:19:52;14.97;;;10.83;;
52730;SDS011;38624;53.242;6.974;2023-08-06T03:22:18;15.40;;;10.30;;
52730;SDS011;38624;53.242;6.974;2023-08-06T03:24:44;12.87;;;9.87;;
52730;SDS011;38624;53.242;6.974;2023-08-06T03:27:09;16.30;;;11.02;;
52730;SDS011;38624;53.242;6.974;2023-08-06T03:29:35;15.87;;;11.13;;
52730;SDS011;38624;53.242;6.974;2023-08-06T03:32:01;20.23;;;11.17;;
52730;SDS011;38624;53.242;6.974;2023-08-06T03:34:26;18.03;;;10.87;;
52730;SDS011;38624;53.242;6.974;2023-08-06T03:36:52;17.80;;;11.73;;
52730;SDS011;38624;53.242;6.974;2023-08-06T03:39:18;14.93;;;11.40;;
52730;SDS011;38624;53.242;6.974;2023-08-06T03:41:43;14.73;;;11.55;;
52730;SDS011;38624;53.242;6.974;2023-08-06T03:44:09;18.63;;;12.00;;
52730;SDS011;38624;53.242;6.974;2023-08-06T03:46:35;18.70;;;11.43;;
52730;SDS011;38624;53.242;6.974;2023-08-06T03:49:00;15.03;;;10.90;;
52730;SDS011;38624;53.242;6.974;2023-08-06T03:51:26;19.30;;;11.07;;
52730;SDS011;38624;53.242;6.974;2023-08-06T03:53:52;14.93;;;11.10;;
52730;SDS011;38624;53.242;6.974;2023-08-06T03:56:17;15.10;;;11.38;;
52730;SDS011;38624;53.242;6.974;2023-08-06T03:58:43;15.70;;;10.80;;
52730;SDS011;38624;53.242;6.974;2023-08-06T04:01:08;19.33;;;12.07;;
52730;SDS011;38624;53.242;6.974;2023-08-06T04:03:34;14.63;;;11.10;;
52730;SDS011;38624;53.242;6.974;2023-08-06T04:06:02;15.17;;;10.73;;
52730;SDS011;38624;53.242;6.974;2023-08-06T04:08:28;14.73;;;11.30;;
52730;SDS011;38624;53.242;6.974;2023-08-06T04:10:54;13.25;;;10.80;;
52730;SDS011;38624;53.242;6.974;2023-08-06T04:13:20;21.17;;;11.90;;
52730;SDS011;38624;53.242;6.974;2023-08-06T04:15:45;15.43;;;10.80;;
52730;SDS011;38624;53.242;6.974;2023-08-06T04:18:12;15.25;;;10.57;;
52730;SDS011;38624;53.242;6.974;2023-08-06T04:20:44;14.47;;;10.80;;
52730;SDS011;38624;53.242;6.974;2023-08-06T04:23:11;16.55;;;11.38;;
52730;SDS011;38624;53.242;6.974;2023-08-06T04:25:37;17.93;;;10.67;;
52730;SDS011;38624;53.242;6.974;2023-08-06T04:28:02;16.27;;;11.83;;
52730;SDS011;38624;53.242;6.974;2023-08-06T04:30:28;13.30;;;10.55;;
52730;SDS011;38624;53.242;6.974;2023-08-06T04:32:54;17.73;;;12.47;;
52730;SDS011;38624;53.242;6.974;2023-08-06T04:35:22;13.93;;;10.80;;
52730;SDS011;38624;53.242;6.974;2023-08-06T04:37:47;17.80;;;12.65;;
52730;SDS011;38624;53.242;6.974;2023-08-06T04:40:13;15.33;;;11.90;;
52730;SDS011;38624;53.242;6.974;2023-08-06T04:42:39;17.13;;;11.13;;
52730;SDS011;38624;53.242;6.974;2023-08-06T04:45:04;14.63;;;10.80;;
52730;SDS011;38624;53.242;6.974;2023-08-06T04:47:31;13.77;;;10.93;;
52730;SDS011;38624;53.242;6.974;2023-08-06T04:49:56;15.90;;;12.07;;
52730;SDS011;38624;53.242;6.974;2023-08-06T04:52:22;13.93;;;10.82;;
52730;SDS011;38624;53.242;6.974;2023-08-06T04:54:48;18.70;;;11.30;;
52730;SDS011;38624;53.242;6.974;2023-08-06T04:57:13;12.33;;;10.63;;
52730;SDS011;38624;53.242;6.974;2023-08-06T04:59:39;16.35;;;11.43;;
52730;SDS011;38624;53.242;6.974;2023-08-06T05:02:05;12.82;;;10.15;;
52730;SDS011;38624;53.242;6.974;2023-08-06T05:04:30;12.93;;;9.87;;
52730;SDS011;38624;53.242;6.974;2023-08-06T05:06:56;16.85;;;10.65;;
52730;SDS011;38624;53.242;6.974;2023-08-06T05:09:22;15.65;;;10.73;;
52730;SDS011;38624;53.242;6.974;2023-08-06T05:11:48;13.27;;;10.70;;
52730;SDS011;38624;53.242;6.974;2023-08-06T05:14:14;14.00;;;10.35;;
52730;SDS011;38624;53.242;6.974;2023-08-06T05:16:40;14.60;;;10.30;;
52730;SDS011;38624;53.242;6.974;2023-08-06T05:19:05;12.32;;;10.57;;
52730;SDS011;38624;53.242;6.974;2023-08-06T05:21:31;16.57;;;10.73;;
52730;SDS011;38624;53.242;6.974;2023-08-06T05:23:57;14.37;;;10.47;;
52730;SDS011;38624;53.242;6.974;2023-08-06T05:26:22;14.00;;;10.50;;
52730;SDS011;38624;53.242;6.974;2023-08-06T05:28:48;11.30;;;9.20;;
52730;SDS011;38624;53.242;6.974;2023-08-06T05:31:14;12.60;;;10.10;;
52730;SDS011;38624;53.242;6.974;2023-08-06T05:33:39;13.10;;;8.77;;
52730;SDS011;38624;53.242;6.974;2023-08-06T05:36:05;9.23;;;7.63;;
52730;SDS011;38624;53.242;6.974;2023-08-06T05:38:30;14.00;;;10.47;;
52730;SDS011;38624;53.242;6.974;2023-08-06T05:40:56;10.43;;;7.90;;
52730;SDS011;38624;53.242;6.974;2023-08-06T05:43:22;12.37;;;8.70;;
52730;SDS011;38624;53.242;6.974;2023-08-06T05:45:51;13.77;;;9.90;;
52730;SDS011;38624;53.242;6.974;2023-08-06T05:48:17;12.57;;;9.82;;
52730;SDS011;38624;53.242;6.974;2023-08-06T05:50:42;12.70;;;9.10;;
52730;SDS011;38624;53.242;6.974;2023-08-06T05:53:08;13.60;;;10.17;;
52730;SDS011;38624;53.242;6.974;2023-08-06T05:55:34;10.13;;;8.03;;
52730;SDS011;38624;53.242;6.974;2023-08-06T05:58:00;12.73;;;9.90;;
52730;SDS011;38624;53.242;6.974;2023-08-06T06:00:26;13.23;;;9.27;;
52730;SDS011;38624;53.242;6.974;2023-08-06T06:02:52;13.67;;;9.37;;
52730;SDS011;38624;53.242;6.974;2023-08-06T06:05:17;12.43;;;9.80;;
52730;SDS011;38624;53.242;6.974;2023-08-06T06:07:43;12.17;;;9.60;;
52730;SDS011;38624;53.242;6.974;2023-08-06T06:10:09;11.60;;;8.10;;
52730;SDS011;38624;53.242;6.974;2023-08-06T06:12:35;9.73;;;6.60;;
52730;SDS011;38624;53.242;6.974;2023-08-06T06:15:00;12.10;;;8.10;;
52730;SDS011;38624;53.242;6.974;2023-08-06T06:17:29;11.80;;;9.47;;
52730;SDS011;38624;53.242;6.974;2023-08-06T06:19:55;12.82;;;8.27;;
52730;SDS011;38624;53.242;6.974;2023-08-06T06:22:21;12.20;;;8.70;;
52730;SDS011;38624;53.242;6.974;2023-08-06T06:24:46;10.73;;;8.77;;
52730;SDS011;38624;53.242;6.974;2023-08-06T06:27:12;9.80;;;8.73;;
52730;SDS011;38624;53.242;6.974;2023-08-06T06:29:38;12.83;;;9.97;;
52730;SDS011;38624;53.242;6.974;2023-08-06T06:32:04;8.93;;;7.15;;
52730;SDS011;38624;53.242;6.974;2023-08-06T06:34:30;12.57;;;7.20;;
52730;SDS011;38624;53.242;6.974;2023-08-06T06:36:55;11.27;;;8.77;;
52730;SDS011;38624;53.242;6.974;2023-08-06T06:39:21;10.67;;;7.40;;
52730;SDS011;38624;53.242;6.974;2023-08-06T06:41:47;20.47;;;8.50;;
52730;SDS011;38624;53.242;6.974;2023-08-06T06:44:13;9.57;;;8.57;;
52730;SDS011;38624;53.242;6.974;2023-08-06T06:46:40;11.60;;;9.30;;
52730;SDS011;38624;53.242;6.974;2023-08-06T06:49:05;9.43;;;7.93;;
52730;SDS011;38624;53.242;6.974;2023-08-06T06:51:31;9.77;;;8.77;;
52730;SDS011;38624;53.242;6.974;2023-08-06T06:53:57;10.70;;;7.33;;
52730;SDS011;38624;53.242;6.974;2023-08-06T06:56:23;12.53;;;8.67;;
52730;SDS011;38624;53.242;6.974;2023-08-06T06:58:49;10.97;;;8.50;;
52730;SDS011;38624;53.242;6.974;2023-08-06T07:01:14;12.07;;;9.00;;
52730;SDS011;38624;53.242;6.974;2023-08-06T07:03:40;10.43;;;9.23;;
52730;SDS011;38624;53.242;6.974;2023-08-06T07:06:06;7.57;;;6.60;;
52730;SDS011;38624;53.242;6.974;2023-08-06T07:08:32;11.60;;;9.80;;
52730;SDS011;38624;53.242;6.974;2023-08-06T07:11:01;10.43;;;9.27;;
52730;SDS011;38624;53.242;6.974;2023-08-06T07:13:28;9.63;;;8.45;;
52730;SDS011;38624;53.242;6.974;2023-08-06T07:15:54;10.90;;;9.48;;
52730;SDS011;38624;53.242;6.974;2023-08-06T07:18:20;10.93;;;9.80;;
52730;SDS011;38624;53.242;6.974;2023-08-06T07:20:50;8.77;;;7.87;;
52730;SDS011;38624;53.242;6.974;2023-08-06T07:23:16;13.30;;;8.65;;
52730;SDS011;38624;53.242;6.974;2023-08-06T07:25:42;9.73;;;8.73;;
52730;SDS011;38624;53.242;6.974;2023-08-06T07:28:08;8.70;;;7.80;;
52730;SDS011;38624;53.242;6.974;2023-08-06T07:30:38;9.63;;;6.93;;
52730;SDS011;38624;53.242;6.974;2023-08-06T07:33:03;11.73;;;8.98;;
52730;SDS011;38624;53.242;6.974;2023-08-06T07:35:29;14.40;;;8.77;;
52730;SDS011;38624;53.242;6.974;2023-08-06T07:37:55;10.40;;;8.50;;
52730;SDS011;38624;53.242;6.974;2023-08-06T07:40:21;8.93;;;6.93;;
52730;SDS011;38624;53.242;6.974;2023-08-06T07:42:46;8.77;;;7.77;;
52730;SDS011;38624;53.242;6.974;2023-08-06T07:45:13;10.37;;;7.70;;
52730;SDS011;38624;53.242;6.974;2023-08-06T07:47:39;8.90;;;7.30;;
52730;SDS011;38624;53.242;6.974;2023-08-06T07:50:05;9.33;;;7.03;;
52730;SDS011;38624;53.242;6.974;2023-08-06T07:52:31;8.23;;;6.95;;
52730;SDS011;38624;53.242;6.974;2023-08-06T07:54:57;7.87;;;6.60;;
52730;SDS011;38624;53.242;6.974;2023-08-06T07:57:23;8.50;;;6.50;;
52730;SDS011;38624;53.242;6.974;2023-08-06T07:59:49;7.70;;;6.13;;
52730;SDS011;38624;53.242;6.974;2023-08-06T08:02:15;6.67;;;6.07;;
52730;SDS011;38624;53.242;6.974;2023-08-06T08:04:41;7.40;;;5.30;;
52730;SDS011;38624;53.242;6.974;2023-08-06T08:07:06;8.03;;;5.87;;
52730;SDS011;38624;53.242;6.974;2023-08-06T08:09:32;8.53;;;4.83;;
52730;SDS011;38624;53.242;6.974;2023-08-06T08:12:00;6.25;;;4.90;;
52730;SDS011;38624;53.242;6.974;2023-08-06T08:14:27;6.82;;;4.50;;
52730;SDS011;38624;53.242;6.974;2023-08-06T08:16:54;8.45;;;4.95;;
52730;SDS011;38624;53.242;6.974;2023-08-06T08:19:20;7.77;;;4.70;;
52730;SDS011;38624;53.242;6.974;2023-08-06T08:21:46;4.82;;;4.05;;
52730;SDS011;38624;53.242;6.974;2023-08-06T08:24:12;4.77;;;4.07;;
52730;SDS011;38624;53.242;6.974;2023-08-06T08:26:37;8.33;;;4.33;;
52730;SDS011;38624;53.242;6.974;2023-08-06T08:29:03;6.40;;;3.90;;
52730;SDS011;38624;53.242;6.974;2023-08-06T08:31:29;5.33;;;3.60;;
52730;SDS011;38624;53.242;6.974;2023-08-06T08:33:54;5.27;;;3.63;;
52730;SDS011;38624;53.242;6.974;2023-08-06T08:36:20;4.23;;;3.30;;
52730;SDS011;38624;53.242;6.974;2023-08-06T08:38:46;8.18;;;3.20;;
52730;SDS011;38624;53.242;6.974;2023-08-06T08:41:12;6.40;;;3.20;;
52730;SDS011;38624;53.242;6.974;2023-08-06T08:43:38;7.07;;;3.97;;
52730;SDS011;38624;53.242;6.974;2023-08-06T08:46:05;5.20;;;3.42;;
52730;SDS011;38624;53.242;6.974;2023-08-06T08:48:33;3.50;;;2.80;;
52730;SDS011;38624;53.242;6.974;2023-08-06T08:50:58;5.30;;;2.90;;
52730;SDS011;38624;53.242;6.974;2023-08-06T08:53:25;6.05;;;3.08;;
52730;SDS011;38624;53.242;6.974;2023-08-06T08:55:53;4.07;;;3.13;;
52730;SDS011;38624;53.242;6.974;2023-08-06T08:58:19;3.65;;;2.60;;
52730;SDS011;38624;53.242;6.974;2023-08-06T09:00:45;4.67;;;2.37;;
52730;SDS011;38624;53.242;6.974;2023-08-06T09:03:13;2.95;;;2.28;;
52730;SDS011;38624;53.242;6.974;2023-08-06T09:05:40;3.88;;;2.63;;
52730;SDS011;38624;53.242;6.974;2023-08-06T09:08:11;3.60;;;2.45;;
52730;SDS011;38624;53.242;6.974;2023-08-06T09:10:41;4.45;;;2.20;;
52730;SDS011;38624;53.242;6.974;2023-08-06T09:13:08;3.75;;;1.95;;
52730;SDS011;38624;53.242;6.974;2023-08-06T09:15:34;4.10;;;2.10;;
52730;SDS011;38624;53.242;6.974;2023-08-06T09:18:00;3.47;;;2.43;;
52730;SDS011;38624;53.242;6.974;2023-08-06T09:20:38;3.38;;;2.20;;
52730;SDS011;38624;53.242;6.974;2023-08-06T09:23:08;3.00;;;2.17;;
52730;SDS011;38624;53.242;6.974;2023-08-06T09:25:36;2.67;;;2.00;;
52730;SDS011;38624;53.242;6.974;2023-08-06T09:28:04;3.08;;;2.05;;
52730;SDS011;38624;53.242;6.974;2023-08-06T09:30:31;3.70;;;1.90;;
52730;SDS011;38624;53.242;6.974;2023-08-06T09:33:04;2.33;;;1.80;;
52730;SDS011;38624;53.242;6.974;2023-08-06T09:35:35;3.10;;;2.00;;
52730;SDS011;38624;53.242;6.974;2023-08-06T09:38:07;4.03;;;2.00;;
52730;SDS011;38624;53.242;6.974;2023-08-06T09:40:35;3.08;;;1.95;;
52730;SDS011;38624;53.242;6.974;2023-08-06T09:43:01;4.03;;;1.85;;
52730;SDS011;38624;53.242;6.974;2023-08-06T09:45:34;2.58;;;1.80;;
52730;SDS011;38624;53.242;6.974;2023-08-06T09:48:05;2.97;;;1.75;;
52730;SDS011;38624;53.242;6.974;2023-08-06T09:50:33;2.72;;;1.90;;
52730;SDS011;38624;53.242;6.974;2023-08-06T09:53:01;3.67;;;1.95;;
52730;SDS011;38624;53.242;6.974;2023-08-06T09:55:29;2.22;;;1.85;;
52730;SDS011;38624;53.242;6.974;2023-08-06T09:57:55;2.30;;;1.73;;
52730;SDS011;38624;53.242;6.974;2023-08-06T10:00:21;3.20;;;2.00;;
52730;SDS011;38624;53.242;6.974;2023-08-06T10:02:51;15.32;;;1.83;;
52730;SDS011;38624;53.242;6.974;2023-08-06T10:05:21;3.33;;;1.95;;
52730;SDS011;38624;53.242;6.974;2023-08-06T10:07:48;4.57;;;2.08;;
52730;SDS011;38624;53.242;6.974;2023-08-06T10:10:16;2.78;;;1.75;;
52730;SDS011;38624;53.242;6.974;2023-08-06T10:12:43;2.85;;;1.73;;
52730;SDS011;38624;53.242;6.974;2023-08-06T10:15:15;4.40;;;1.58;;
52730;SDS011;38624;53.242;6.974;2023-08-06T10:17:45;2.38;;;1.30;;
52730;SDS011;38624;53.242;6.974;2023-08-06T10:20:14;3.05;;;1.63;;
52730;SDS011;38624;53.242;6.974;2023-08-06T10:22:43;2.95;;;2.17;;
52730;SDS011;38624;53.242;6.974;2023-08-06T10:25:10;2.90;;;1.70;;
52730;SDS011;38624;53.242;6.974;2023-08-06T10:32:57;3.53;;;1.55;;
52730;SDS011;38624;53.242;6.974;2023-08-06T10:38:19;3.92;;;1.88;;
52730;SDS011;38624;53.242;6.974;2023-08-06T10:43:29;2.50;;;1.58;;
52730;SDS011;38624;53.242;6.974;2023-08-06T10:48:29;2.92;;;1.73;;
52730;SDS011;38624;53.242;6.974;2023-08-06T10:51:01;3.40;;;1.60;;
52730;SDS011;38624;53.242;6.974;2023-08-06T10:55:53;2.28;;;1.92;;
52730;SDS011;38624;53.242;6.974;2023-08-06T10:58:19;2.80;;;1.50;;
52730;SDS011;38624;53.242;6.974;2023-08-06T11:00:45;3.87;;;2.17;;
52730;SDS011;38624;53.242;6.974;2023-08-06T11:03:11;3.60;;;2.10;;
52730;SDS011;38624;53.242;6.974;2023-08-06T11:05:37;2.53;;;1.50;;
52730;SDS011;38624;53.242;6.974;2023-08-06T11:08:03;4.20;;;1.60;;
52730;SDS011;38624;53.242;6.974;2023-08-06T11:10:29;2.37;;;1.63;;
52730;SDS011;38624;53.242;6.974;2023-08-06T11:12:55;2.20;;;1.47;;
52730;SDS011;38624;53.242;6.974;2023-08-06T11:15:25;3.35;;;1.80;;
52730;SDS011;38624;53.242;6.974;2023-08-06T11:17:51;4.05;;;1.83;;
52730;SDS011;38624;53.242;6.974;2023-08-06T11:20:17;2.70;;;1.40;;
52730;SDS011;38624;53.242;6.974;2023-08-06T11:22:45;3.83;;;1.90;;
52730;SDS011;38624;53.242;6.974;2023-08-06T11:25:11;2.20;;;1.57;;
52730;SDS011;38624;53.242;6.974;2023-08-06T11:27:37;3.90;;;1.73;;
52730;SDS011;38624;53.242;6.974;2023-08-06T11:30:02;3.57;;;2.00;;
52730;SDS011;38624;53.242;6.974;2023-08-06T11:32:29;3.08;;;1.80;;
52730;SDS011;38624;53.242;6.974;2023-08-06T11:34:55;3.43;;;1.57;;
52730;SDS011;38624;53.242;6.974;2023-08-06T11:37:21;3.25;;;2.00;;
52730;SDS011;38624;53.242;6.974;2023-08-06T11:39:51;3.47;;;1.77;;
52730;SDS011;38624;53.242;6.974;2023-08-06T11:42:17;3.35;;;2.25;;
52730;SDS011;38624;53.242;6.974;2023-08-06T11:44:43;6.00;;;1.80;;
52730;SDS011;38624;53.242;6.974;2023-08-06T11:47:16;3.60;;;2.10;;
52730;SDS011;38624;53.242;6.974;2023-08-06T11:49:43;5.10;;;2.10;;
52730;SDS011;38624;53.242;6.974;2023-08-06T11:52:17;3.05;;;1.75;;
52730;SDS011;38624;53.242;6.974;2023-08-06T11:57:31;2.97;;;1.95;;
52730;SDS011;38624;53.242;6.974;2023-08-06T12:00:04;2.30;;;1.50;;
52730;SDS011;38624;53.242;6.974;2023-08-06T12:02:34;2.45;;;1.55;;
52730;SDS011;38624;53.242;6.974;2023-08-06T12:07:30;1.85;;;1.35;;
52730;SDS011;38624;53.242;6.974;2023-08-06T12:09:57;3.42;;;2.00;;
52730;SDS011;38624;53.242;6.974;2023-08-06T12:14:49;3.78;;;1.50;;
52730;SDS011;38624;53.242;6.974;2023-08-06T12:17:15;2.77;;;1.70;;
52730;SDS011;38624;53.242;6.974;2023-08-06T12:19:41;3.73;;;1.93;;
52730;SDS011;38624;53.242;6.974;2023-08-06T12:22:06;2.10;;;1.60;;
52730;SDS011;38624;53.242;6.974;2023-08-06T12:24:32;2.20;;;1.53;;
52730;SDS011;38624;53.242;6.974;2023-08-06T12:26:58;2.40;;;1.60;;
52730;SDS011;38624;53.242;6.974;2023-08-06T12:29:25;3.20;;;1.50;;
52730;SDS011;38624;53.242;6.974;2023-08-06T12:31:50;2.72;;;1.75;;
52730;SDS011;38624;53.242;6.974;2023-08-06T12:34:16;3.27;;;1.97;;
52730;SDS011;38624;53.242;6.974;2023-08-06T12:36:42;2.90;;;1.60;;
52730;SDS011;38624;53.242;6.974;2023-08-06T12:39:07;2.67;;;2.00;;
52730;SDS011;38624;53.242;6.974;2023-08-06T12:41:33;3.70;;;1.70;;
52730;SDS011;38624;53.242;6.974;2023-08-06T12:43:59;2.73;;;1.87;;
52730;SDS011;38624;53.242;6.974;2023-08-06T12:46:25;2.70;;;2.00;;
52730;SDS011;38624;53.242;6.974;2023-08-06T12:48:50;2.57;;;1.73;;
52730;SDS011;38624;53.242;6.974;2023-08-06T12:51:16;2.60;;;1.83;;
52730;SDS011;38624;53.242;6.974;2023-08-06T12:53:42;3.80;;;1.80;;
52730;SDS011;38624;53.242;6.974;2023-08-06T12:56:07;3.47;;;1.97;;
52730;SDS011;38624;53.242;6.974;2023-08-06T12:58:33;2.60;;;1.80;;
52730;SDS011;38624;53.242;6.974;2023-08-06T13:00:59;3.33;;;2.10;;
52730;SDS011;38624;53.242;6.974;2023-08-06T13:03:25;2.50;;;1.87;;
52730;SDS011;38624;53.242;6.974;2023-08-06T13:05:50;2.10;;;1.53;;
52730;SDS011;38624;53.242;6.974;2023-08-06T13:08:17;3.83;;;2.00;;
52730;SDS011;38624;53.242;6.974;2023-08-06T13:10:42;4.20;;;2.10;;
52730;SDS011;38624;53.242;6.974;2023-08-06T13:13:08;2.83;;;1.93;;
52730;SDS011;38624;53.242;6.974;2023-08-06T13:18:01;3.63;;;1.50;;
52730;SDS011;38624;53.242;6.974;2023-08-06T13:20:26;2.47;;;1.50;;
52730;SDS011;38624;53.242;6.974;2023-08-06T13:22:55;4.07;;;2.00;;
52730;SDS011;38624;53.242;6.974;2023-08-06T13:25:20;3.90;;;2.40;;
52730;SDS011;38624;53.242;6.974;2023-08-06T13:27:46;3.57;;;2.23;;
52730;SDS011;38624;53.242;6.974;2023-08-06T13:30:12;4.15;;;2.03;;
52730;SDS011;38624;53.242;6.974;2023-08-06T13:32:38;3.20;;;1.93;;
52730;SDS011;38624;53.242;6.974;2023-08-06T13:35:04;1.60;;;1.20;;
52730;SDS011;38624;53.242;6.974;2023-08-06T13:37:30;2.38;;;1.50;;
52730;SDS011;38624;53.242;6.974;2023-08-06T13:39:56;4.27;;;1.70;;
52730;SDS011;38624;53.242;6.974;2023-08-06T13:42:22;2.30;;;1.53;;
52730;SDS011;38624;53.242;6.974;2023-08-06T13:44:47;5.23;;;1.70;;
52730;SDS011;38624;53.242;6.974;2023-08-06T13:47:13;3.70;;;1.60;;
52730;SDS011;38624;53.242;6.974;2023-08-06T13:49:39;2.77;;;1.87;;
52730;SDS011;38624;53.242;6.974;2023-08-06T13:52:04;2.80;;;1.73;;
52730;SDS011;38624;53.242;6.974;2023-08-06T13:54:30;2.97;;;1.90;;
52730;SDS011;38624;53.242;6.974;2023-08-06T13:56:56;2.30;;;1.57;;
52730;SDS011;38624;53.242;6.974;2023-08-06T13:59:21;3.47;;;2.03;;
52730;SDS011;38624;53.242;6.974;2023-08-06T14:01:49;3.40;;;1.70;;
52730;SDS011;38624;53.242;6.974;2023-08-06T14:04:15;3.22;;;1.88;;
52730;SDS011;38624;53.242;6.974;2023-08-06T14:06:41;3.57;;;2.13;;
52730;SDS011;38624;53.242;6.974;2023-08-06T14:09:07;11.00;;;2.43;;
52730;SDS011;38624;53.242;6.974;2023-08-06T14:11:33;3.00;;;1.90;;
52730;SDS011;38624;53.242;6.974;2023-08-06T14:13:59;2.65;;;1.90;;
52730;SDS011;38624;53.242;6.974;2023-08-06T14:16:25;2.55;;;1.50;;
52730;SDS011;38624;53.242;6.974;2023-08-06T14:18:51;4.38;;;1.98;;
52730;SDS011;38624;53.242;6.974;2023-08-06T14:21:16;3.50;;;2.10;;
52730;SDS011;38624;53.242;6.974;2023-08-06T14:23:42;3.57;;;1.90;;
52730;SDS011;38624;53.242;6.974;2023-08-06T14:26:08;2.57;;;1.70;;
52730;SDS011;38624;53.242;6.974;2023-08-06T14:28:35;5.75;;;2.05;;
52730;SDS011;38624;53.242;6.974;2023-08-06T14:31:01;3.45;;;1.92;;
52730;SDS011;38624;53.242;6.974;2023-08-06T14:33:27;2.50;;;1.50;;
52730;SDS011;38624;53.242;6.974;2023-08-06T14:35:53;4.30;;;2.00;;
52730;SDS011;38624;53.242;6.974;2023-08-06T14:38:18;3.63;;;1.83;;
52730;SDS011;38624;53.242;6.974;2023-08-06T14:40:44;4.90;;;1.40;;
52730;SDS011;38624;53.242;6.974;2023-08-06T14:43:10;2.63;;;1.40;;
52730;SDS011;38624;53.242;6.974;2023-08-06T14:45:39;2.50;;;1.93;;
52730;SDS011;38624;53.242;6.974;2023-08-06T14:48:05;3.55;;;1.90;;
52730;SDS011;38624;53.242;6.974;2023-08-06T14:52:57;2.42;;;1.73;;
52730;SDS011;38624;53.242;6.974;2023-08-06T14:55:26;2.47;;;1.70;;
52730;SDS011;38624;53.242;6.974;2023-08-06T14:57:52;3.10;;;1.80;;
52730;SDS011;38624;53.242;6.974;2023-08-06T15:00:18;2.45;;;1.60;;
52730;SDS011;38624;53.242;6.974;2023-08-06T15:02:45;4.18;;;1.60;;
52730;SDS011;38624;53.242;6.974;2023-08-06T15:05:11;4.72;;;2.42;;
52730;SDS011;38624;53.242;6.974;2023-08-06T15:07:37;5.03;;;2.07;;
52730;SDS011;38624;53.242;6.974;2023-08-06T15:10:03;3.53;;;1.53;;
52730;SDS011;38624;53.242;6.974;2023-08-06T15:12:33;6.05;;;1.90;;